Аэропорт: Сыктывкар. Сыктывкар

ICAO: UUYY

METAR:
Информация по данной станции не доступна
METAR:
2022-06-26 08:00:00
TAF UUYY 260800Z 2609/2709 34005G12MPS 9999 SCT020CB TEMPO 2609/2612 35006G16MPS BECMG 2614/2616 26003MPS TEMPO 2621/2703 6000 -SHRA FEW007 BKN016CB BECMG 2702/2703 02007G14MPS TEMPO 2703/2709 02009G17MPS 6000 -SHRA FEW007 BKN016CB